AirNav   Free Bose Alto or Rondo audio sunglasses
 
 1103 users online  

20TS Bains Private Airport
Bandera, Texas, USA

GOING TO BANDERA?


FAA INFORMATION EFFECTIVE 05 NOVEMBER 2020

Location

FAA Identifier: 20TS
Lat/Long: 29-48-35.7960N 099-04-05.1290W
29-48.596600N 099-04.085483W
29.8099433,-99.0680914
(estimated)
Elevation: 1420 ft. / 433 m (estimated)
Variation: 07E (1985)
From city: 5 miles S of BANDERA, TX
Time zone: UTC -6 (UTC -5 during Daylight Saving Time)
Zip code: 78003

Airport Operations

Airport use: Private use. Permission required prior to landing
Activation date: 08/1986
Control tower: no
ARTCC: HOUSTON CENTER
FSS: SAN ANGELO FLIGHT SERVICE STATION
Attendance: UNATNDD
Wind indicator: yes
Segmented circle: no

Airport Communications

WX AWOS-3 at ERV (10 nm N): 118.125 (830-895-2204)

Nearby radio navigation aids

VOR radial/distance  VOR name  Freq  Var
CSIr124/10.2CENTER POINT VORTAC117.5008E
STVr210/30.4STONEWALL VORTAC113.8008E
SATr279/33.1SAN ANTONIO VORTAC116.8008E

 
NDB name  Hdg/Dist  Freq  Var  ID
HONDO004/26.732908EHMA .... -- .-

Airport Services

Runway Information

Runway 3/21

Dimensions: 1900 x 50 ft. / 579 x 15 m
Surface: dirt/turf
DIRT-TURF
RUNWAY 3  RUNWAY 21
Traffic pattern: leftleft
Obstructions: 20 ft. pline, 75 ft. from runwaynone

Airport Ownership and Management from official FAA records

Ownership: Privately-owned
Owner: LES BAINS
HCR 3 BOX 506
BANDERA, TX 78003
Manager: LES BAINS
HCR 3 BOX 506
BANDERA, TX 78003

Airport Operational Statistics

Aircraft based on the field: 2
Single engine airplanes: 2
    

Additional Remarks

FOR CD CTC SAN ANTONIO APCH AT 210-805-5516.

Instrument Procedures

There are no published instrument procedures at 20TS.

Some nearby airports with instrument procedures:

KERV - Kerrville Municipal Airport/Louis Schreiner Field (10 nm N)
5C1 - Boerne Stage Field Airport (20 nm E)
T82 - Gillespie County Airport (27 nm N)
KHDO - South Texas Regional Airport at Hondo (28 nm S)
KCVB - Castroville Municipal Airport (30 nm S)
 
Loc | Ops | Rwys | IFR | FBO | Links
Com | Nav | Svcs | Stats | Notes
Area around 20TS (Bains Private Airport)
 
Road maps at: MapQuest Bing Google
 
Aerial photo
No photo
 
Sectional chart

 
Airport distance calculator
Flying to Bains Private Airport? Find the distance to fly.

From to 20TS

Sunrise and sunset
Times for 27-Nov-2020
 Local
(UTC-6)
 Zulu
(UTC)
Morning civil twilight06:4712:47
Sunrise07:1313:13
Sunset17:3623:36
Evening civil twilight18:0200:02

Current date and time
Zulu (UTC)  27-Nov-2020 21:24:41
Local (UTC-6)  27-Nov-2020 15:24:41
 
METAR
KERV 
10nm N 
272055Z AUTO 34008KT 10SM BKN014 BKN070 OVC110 16/13 A3001 RMK AO2 T01620125
K5C1 
20nm E 
272055Z AUTO 03003KT 10SM OVC120 20/18 A2999 RMK AO1
TAF
KSAT 
35nm SE 
271135Z 2712/2818 VRB03KT 6SM -RA BR VCTS BKN011CB FM271800 01010KT 5SM SHRA VCTS OVC035CB FM272300 02010KT 6SM SHRA OVC025 FM280600 03014KT 5SM -RA BR VCTS OVC008CB
KSKF 
37nm SE 
271240Z 2712/2816 VRB06KT 9999 VCSH SCT010 BKN020 QNH2990INS BECMG 2713/2714 22008KT 9999 VCSH BKN020 QNH2988INS TEMPO 2715/2718 24010G20KT 8000 -SHRA VCTS BKN018CB BECMG 2717/2718 04010KT 9000 -SHRA OVC020 QNH2990INS BECMG 2723/2724 03008KT 9999 NSW SCT025 QNH2994INS BECMG 2805/2806 02015KT 9000 -SHRA VCTS BKN015CB QNH3000INS TX23/2717Z TN20/2712Z
KSSF 
42nm SE 
271135Z 2712/2812 VRB03KT 6SM BR VCSH BKN025 FM271400 VRB03KT 5SM SHRA VCTS OVC012CB FM271800 03009KT 6SM SHRA BR VCTS OVC035CB FM280100 03013KT 6SM SHRA OVC025 FM280600 03016KT 5SM -RA BR VCTS OVC008CB
NOTAMs
Click for the latest NOTAMs
NOTAMs are issued by the DoD/FAA and will open in a separate window not controlled by AirNav.

 

 
 

Would you like to see your business listed on this page?

 If your business provides an interesting product or service to pilots, flight crews, aircraft, or users of the Bains Private Airport, you should consider listing it here.  To start the listing process, click on the button below
 
Add a business
 

Other Pages about Bains Private Airport

Update a link
 
Copyright © AirNav, LLC. All rights reserved. Privacy Policy  Contact